Terminal Aerodrome Forecast
Issued by NWS

Home | Current Version | Previous Version | Text Only | Print | Product List | Glossary On
Versions: 1 2 3 4 5 6 7 8 9 10 11 12 13 14 15 16 17 18 19 20 21
000
FTUS41 KOKX 291915 AAA
TAFSWF
TAF AMD
KSWF 291915Z 2919/3024 28007KT P6SM FEW250
     FM292300 22004KT P6SM SCT250
     FM300700 22004KT P6SM OVC100
     FM301000 22008KT P6SM OVC050
     FM301300 24010KT P6SM SCT020 BKN050
     FM301700 27014G22KT P6SM BKN050
      AMD NOT SKED=

USA.gov is the U.S. government's official web portal to all federal, state and local government web resources and services.